createdAt,value
2019-05-30T04:59:23.739Z,13.80
2019-05-30T05:01:52.547Z,13.90
2019-05-30T05:04:21.817Z,14.00
2019-05-30T05:06:50.986Z,14.10
2019-05-30T05:09:20.297Z,14.30
2019-05-30T05:11:49.201Z,14.40
2019-05-30T05:14:18.465Z,14.50
2019-05-30T05:16:47.719Z,14.60
2019-05-30T05:19:17.179Z,14.70
2019-05-30T05:21:46.154Z,14.90
2019-05-30T05:24:15.406Z,15.00
2019-05-30T05:26:44.547Z,15.10
2019-05-30T05:29:14.001Z,15.30
2019-05-30T05:31:42.984Z,15.30
2019-05-30T05:34:11.770Z,15.30
2019-05-30T05:36:40.619Z,15.40
2019-05-30T05:39:09.577Z,15.40
2019-05-30T05:41:38.666Z,15.50
2019-05-30T05:44:07.738Z,15.60
2019-05-30T05:46:36.502Z,15.70
2019-05-30T05:49:05.383Z,15.70
2019-05-30T05:51:34.183Z,15.80
2019-05-30T05:54:02.974Z,15.80
2019-05-30T05:56:31.836Z,15.90
2019-05-30T05:59:00.658Z,16.00
2019-05-30T06:01:30.211Z,16.10
2019-05-30T06:04:12.072Z,16.20
2019-05-30T06:06:31.669Z,16.30
2019-05-30T06:09:00.668Z,16.30
2019-05-30T06:11:30.045Z,16.40
2019-05-30T06:13:59.007Z,16.60
2019-05-30T06:16:28.466Z,16.70
2019-05-30T06:18:57.305Z,16.80
2019-05-30T06:21:26.090Z,16.90
2019-05-30T06:23:54.948Z,16.80
2019-05-30T06:26:24.334Z,17.00
2019-05-30T06:28:53.354Z,17.10
2019-05-30T06:31:22.833Z,17.20
2019-05-30T06:33:52.045Z,17.30
2019-05-30T06:36:21.418Z,17.40
2019-05-30T06:38:50.265Z,17.30
2019-05-30T06:41:19.392Z,17.40
2019-05-30T06:43:48.331Z,17.50
2019-05-30T06:46:17.359Z,17.70
2019-05-30T06:48:46.699Z,17.80
2019-05-30T06:51:15.502Z,17.90
2019-05-30T06:53:44.432Z,18.10
2019-05-30T06:56:13.292Z,18.20
2019-05-30T06:58:48.799Z,18.20
2019-05-30T07:01:12.989Z,18.40
2019-05-30T07:03:42.252Z,18.40
2019-05-30T07:06:11.925Z,18.30
2019-05-30T07:08:41.166Z,18.20
2019-05-30T07:11:10.025Z,18.30
2019-05-30T07:13:38.910Z,18.40
2019-05-30T07:16:08.041Z,18.30
2019-05-30T07:18:37.206Z,18.40
2019-05-30T07:21:06.517Z,18.30
2019-05-30T07:23:39.039Z,18.30
2019-05-30T07:26:05.978Z,18.30
2019-05-30T07:28:34.949Z,18.30
2019-05-30T07:31:03.804Z,18.50
2019-05-30T07:33:34.579Z,18.50
2019-05-30T07:36:03.553Z,18.70
2019-05-30T07:38:32.746Z,18.90
2019-05-30T07:41:02.454Z,18.90
2019-05-30T07:43:32.344Z,19.00
2019-05-30T07:46:02.821Z,19.10
2019-05-30T07:48:32.370Z,19.10
2019-05-30T07:51:01.349Z,19.10
2019-05-30T07:53:30.692Z,19.20
2019-05-30T07:55:59.630Z,19.30
2019-05-30T07:58:29.011Z,19.30
2019-05-30T08:00:57.975Z,19.30
2019-05-30T08:03:26.811Z,19.30
2019-05-30T08:05:55.606Z,19.30
2019-05-30T08:08:24.476Z,19.50
2019-05-30T08:11:08.445Z,19.70
2019-05-30T08:13:23.810Z,19.80
2019-05-30T08:15:52.634Z,19.80
2019-05-30T08:18:22.118Z,19.90
2019-05-30T08:20:51.423Z,19.80
2019-05-30T08:23:20.582Z,19.90
2019-05-30T08:25:49.697Z,19.80
2019-05-30T08:28:18.487Z,19.70
2019-05-30T08:30:47.570Z,19.70
2019-05-30T08:33:16.725Z,19.90
2019-05-30T08:35:50.012Z,20.10
2019-05-30T08:38:16.826Z,20.20
2019-05-30T08:40:45.677Z,20.20
2019-05-30T08:43:14.491Z,20.40
2019-05-30T08:45:43.325Z,20.60
2019-05-30T08:48:12.372Z,20.60
2019-05-30T08:50:44.578Z,20.30
2019-05-30T08:53:12.514Z,20.20
2019-05-30T08:55:41.450Z,20.20
2019-05-30T08:58:10.353Z,20.40
2019-05-30T09:00:39.595Z,20.60
2019-05-30T09:03:08.718Z,20.90
2019-05-30T09:05:38.609Z,20.90
2019-05-30T09:08:07.554Z,21.00
2019-05-30T09:10:37.499Z,21.30
2019-05-30T09:13:06.873Z,21.60
2019-05-30T09:15:37.495Z,21.70
2019-05-30T09:18:06.323Z,21.70
2019-05-30T09:20:35.150Z,21.70
2019-05-30T09:23:03.926Z,21.60
2019-05-30T09:25:32.770Z,21.10
2019-05-30T09:28:01.941Z,21.00
2019-05-30T09:30:30.840Z,20.80
2019-05-30T09:32:59.659Z,20.80
2019-05-30T09:35:28.498Z,20.80
2019-05-30T09:37:57.360Z,21.00
2019-05-30T09:40:26.674Z,21.10
2019-05-30T09:42:55.463Z,21.10
2019-05-30T09:45:24.923Z,21.10
2019-05-30T09:47:53.785Z,21.00
2019-05-30T09:50:22.633Z,21.10
2019-05-30T09:52:51.525Z,20.90
2019-05-30T09:55:22.429Z,20.60
2019-05-30T09:57:51.777Z,20.30
2019-05-30T10:00:21.411Z,19.90
2019-05-30T10:02:50.619Z,20.00
2019-05-30T10:05:24.142Z,20.00
2019-05-30T10:07:51.151Z,19.90
2019-05-30T10:10:20.576Z,19.70
2019-05-30T10:12:50.343Z,19.50
2019-05-30T10:15:20.385Z,19.30
2019-05-30T10:17:52.128Z,19.30
2019-05-30T10:20:21.334Z,19.30
2019-05-30T10:22:52.083Z,19.40
2019-05-30T10:25:21.094Z,19.50
2019-05-30T10:27:51.161Z,19.90
2019-05-30T10:30:21.913Z,20.10
2019-05-30T10:32:51.934Z,20.10
2019-05-30T10:35:21.214Z,20.20
2019-05-30T10:37:50.895Z,20.20
2019-05-30T10:40:20.261Z,20.30
2019-05-30T10:42:49.663Z,20.50
2019-05-30T10:45:20.415Z,20.60
2019-05-30T10:47:49.446Z,20.60
2019-05-30T10:50:19.841Z,20.80
2019-05-30T10:52:49.423Z,20.60
2019-05-30T10:55:21.333Z,20.60
2019-05-30T10:57:51.616Z,20.40
2019-05-30T11:00:22.789Z,20.30
2019-05-30T11:02:52.791Z,20.30
2019-05-30T11:05:22.297Z,20.40
2019-05-30T11:08:05.509Z,20.40
2019-05-30T11:10:40.388Z,20.30
2019-05-30T11:13:11.271Z,20.00
2019-05-30T11:15:40.138Z,20.00
2019-05-30T11:18:10.013Z,19.70
2019-05-30T11:20:38.811Z,19.60
2019-05-30T11:23:08.320Z,19.50
2019-05-30T11:25:37.175Z,19.40
2019-05-30T11:28:06.600Z,19.50
2019-05-30T11:30:35.510Z,19.40
2019-05-30T11:33:04.803Z,19.40
2019-05-30T11:35:33.745Z,19.30
2019-05-30T11:38:02.812Z,19.40
2019-05-30T11:40:31.610Z,19.30
2019-05-30T11:43:00.483Z,19.30
2019-05-30T11:45:29.342Z,19.30
2019-05-30T11:47:58.243Z,19.30
2019-05-30T11:50:27.499Z,19.40
2019-05-30T11:52:56.328Z,19.30
2019-05-30T11:55:25.199Z,19.30
2019-05-30T11:57:54.639Z,19.30
2019-05-30T12:00:24.260Z,19.30
2019-05-30T12:02:54.312Z,19.20
2019-05-30T12:05:24.002Z,19.20
2019-05-30T12:07:52.977Z,19.10
2019-05-30T12:10:22.338Z,19.20
2019-05-30T12:12:51.274Z,19.10
2019-05-30T12:15:20.416Z,19.10
2019-05-30T12:17:49.219Z,19.00
2019-05-30T12:20:19.064Z,18.90
2019-05-30T12:22:47.971Z,18.90
2019-05-30T12:25:18.499Z,18.80
2019-05-30T12:27:47.335Z,18.70
2019-05-30T12:30:16.825Z,18.60
2019-05-30T12:32:45.596Z,18.50
2019-05-30T12:35:15.403Z,18.50
2019-05-30T12:37:54.794Z,18.40
2019-05-30T12:40:15.822Z,18.40
2019-05-30T12:42:44.739Z,18.40
2019-05-30T12:45:14.263Z,18.40
2019-05-30T12:47:43.440Z,18.40
2019-05-30T12:50:16.649Z,18.30
2019-05-30T12:52:44.661Z,18.30
2019-05-30T12:55:13.906Z,18.20
2019-05-30T12:57:42.828Z,18.10
2019-05-30T13:00:18.044Z,18.20
2019-05-30T13:02:43.185Z,18.20
2019-05-30T13:05:12.083Z,18.20
2019-05-30T13:07:41.307Z,18.20
2019-05-30T13:10:10.570Z,18.30
2019-05-30T13:12:39.784Z,18.30
2019-05-30T13:15:10.033Z,18.30
2019-05-30T13:17:39.180Z,18.30
2019-05-30T13:20:10.384Z,18.40
2019-05-30T13:22:39.178Z,18.30
2019-05-30T13:25:08.801Z,18.30
2019-05-30T13:27:37.655Z,18.20
2019-05-30T13:30:07.340Z,18.20
2019-05-30T13:32:37.544Z,18.30
2019-05-30T13:35:07.609Z,18.30
2019-05-30T13:37:36.731Z,18.20
2019-05-30T13:40:19.891Z,18.20
2019-05-30T13:42:37.232Z,18.20
2019-05-30T13:45:06.629Z,18.40
2019-05-30T13:47:36.464Z,18.60
2019-05-30T13:50:09.777Z,18.70
2019-05-30T13:52:37.003Z,18.90
2019-05-30T13:55:08.430Z,18.90
2019-05-30T13:57:37.398Z,18.90
2019-05-30T14:00:08.043Z,19.10
2019-05-30T14:02:37.337Z,19.20
2019-05-30T14:05:06.749Z,19.10
2019-05-30T14:07:35.874Z,19.10
2019-05-30T14:10:06.409Z,19.20
2019-05-30T14:12:35.543Z,19.10
2019-05-30T14:15:09.213Z,19.00
2019-05-30T14:17:35.747Z,19.00
2019-05-30T14:20:05.339Z,18.90
2019-05-30T14:22:34.182Z,18.90
2019-05-30T14:25:03.446Z,19.00
2019-05-30T14:27:32.306Z,19.20
2019-05-30T14:30:01.101Z,19.30
2019-05-30T14:32:30.311Z,19.40
2019-05-30T14:34:59.161Z,19.40
2019-05-30T14:37:27.935Z,19.50
2019-05-30T14:39:56.707Z,19.30
2019-05-30T14:42:43.889Z,19.40
2019-05-30T17:00:36.899Z,19.70
2019-05-30T17:03:06.113Z,19.70
2019-05-30T17:05:34.942Z,19.70
2019-05-30T17:08:04.323Z,19.70
2019-05-30T17:10:33.556Z,19.70
2019-05-30T17:13:02.414Z,19.80
2019-05-30T17:15:31.199Z,19.70
2019-05-30T17:18:00.355Z,19.90
2019-05-30T17:20:29.203Z,19.90
2019-05-30T17:22:58.006Z,20.10
2019-05-30T17:25:27.219Z,20.10
2019-05-30T17:27:57.103Z,20.10
2019-05-30T17:30:27.766Z,20.10
2019-05-30T17:32:56.952Z,20.00
2019-05-30T17:35:26.275Z,19.90
2019-05-30T17:37:55.343Z,19.70
2019-05-30T17:40:39.085Z,19.70
2019-05-30T17:42:55.163Z,19.70
2019-05-30T17:45:25.209Z,19.80
2019-05-30T17:48:02.648Z,19.90
2019-05-30T17:50:25.812Z,19.90
2019-05-30T17:52:55.550Z,20.00
2019-05-30T17:55:24.343Z,20.10
2019-05-30T17:57:53.443Z,20.00
2019-05-30T18:00:22.748Z,20.00
2019-05-30T18:02:51.937Z,19.90
2019-05-30T18:05:22.434Z,20.00
2019-05-30T18:07:51.454Z,20.00
2019-05-30T18:10:20.755Z,19.90
2019-05-30T18:12:49.643Z,19.80
2019-05-30T18:15:18.951Z,19.80
2019-05-30T18:17:47.759Z,19.70
2019-05-30T18:20:18.168Z,19.70
2019-05-30T18:22:47.263Z,19.70
2019-05-30T18:25:16.912Z,19.80
2019-05-30T18:27:45.719Z,19.80
2019-05-30T18:30:16.700Z,19.90
2019-05-30T18:32:45.700Z,20.10
2019-05-30T18:35:14.752Z,20.20
2019-05-30T18:37:43.596Z,20.20
2019-05-30T18:40:12.735Z,20.20
2019-05-30T18:42:41.625Z,20.20
2019-05-30T18:45:10.994Z,20.20
2019-05-30T18:47:40.411Z,20.10
2019-05-30T18:50:09.777Z,20.10
2019-05-30T18:52:39.223Z,20.20
2019-05-30T18:55:08.349Z,20.20
2019-05-30T18:57:37.412Z,20.20
2019-05-30T19:00:07.556Z,20.10
2019-05-30T19:02:36.643Z,20.20
2019-05-30T19:05:05.904Z,20.20
2019-05-30T19:07:34.675Z,20.10
2019-05-30T19:10:04.310Z,20.10
2019-05-30T19:12:34.252Z,20.10
2019-05-30T19:15:03.508Z,20.00
2019-05-30T19:17:33.679Z,19.90
2019-05-30T19:20:02.963Z,19.90
2019-05-30T19:22:32.191Z,19.80
2019-05-30T19:25:01.222Z,19.80
2019-05-30T19:27:32.496Z,19.70
2019-05-30T19:30:00.938Z,19.70
2019-05-30T19:32:30.658Z,19.50
2019-05-30T19:34:59.591Z,19.50
2019-05-30T19:37:28.985Z,19.60
2019-05-30T19:39:57.972Z,19.60
2019-05-30T19:42:27.288Z,19.70
2019-05-30T19:44:56.634Z,19.60
2019-05-30T19:47:25.488Z,19.50
2019-05-30T19:49:54.267Z,19.50
2019-05-30T19:52:23.046Z,19.40
2019-05-30T19:54:51.935Z,19.50
2019-05-30T19:57:20.843Z,19.50
2019-05-30T19:59:49.647Z,19.50
2019-05-30T20:02:18.426Z,19.40
2019-05-30T20:04:47.238Z,19.40
2019-05-30T20:07:16.174Z,19.50
2019-05-30T20:09:58.474Z,19.40
2019-05-30T20:12:15.868Z,19.30
2019-05-30T20:14:44.783Z,19.20
2019-05-30T20:17:13.572Z,19.20
2019-05-30T20:19:42.521Z,19.10
2019-05-30T20:22:12.062Z,19.10
2019-05-30T20:24:40.870Z,19.00
2019-05-30T20:27:09.826Z,18.90
2019-05-30T20:29:40.253Z,18.90
2019-05-30T20:32:09.481Z,18.70
2019-05-30T20:34:38.883Z,18.70
2019-05-30T20:37:07.768Z,18.70
2019-05-30T20:39:36.721Z,18.60
2019-05-30T20:42:18.679Z,18.60
2019-05-30T20:44:37.179Z,18.60
2019-05-30T20:47:06.483Z,18.50
2019-05-30T20:49:35.568Z,18.40
2019-05-30T20:52:04.633Z,18.30
2019-05-30T20:54:33.524Z,18.20
2019-05-30T20:57:02.657Z,18.10
2019-05-30T20:59:31.860Z,18.00
2019-05-30T21:02:01.161Z,17.90
2019-05-30T21:04:29.983Z,17.80
2019-05-30T21:06:59.568Z,17.80
2019-05-30T21:09:29.508Z,17.70
2019-05-30T21:12:02.176Z,17.70
2019-05-30T21:14:33.482Z,17.60
2019-05-30T21:17:03.005Z,17.60
2019-05-30T21:19:32.480Z,17.70
2019-05-30T21:22:01.388Z,17.80
2019-05-30T21:24:30.502Z,17.80
2019-05-30T21:26:59.364Z,17.70
2019-05-30T21:29:28.181Z,17.70
2019-05-30T21:31:57.088Z,17.60
2019-05-30T21:34:26.215Z,17.60
2019-05-30T21:36:56.989Z,17.60
2019-05-30T21:39:25.849Z,17.50
2019-05-30T21:41:54.750Z,17.50
2019-05-30T21:44:24.002Z,17.50
2019-05-30T21:46:52.914Z,17.60
2019-05-30T21:49:21.731Z,17.60
2019-05-30T21:51:51.185Z,17.60
2019-05-30T21:54:20.359Z,17.70
2019-05-30T21:56:50.164Z,17.70
2019-05-30T21:59:19.729Z,17.70
2019-05-30T22:01:48.757Z,17.70
2019-05-30T22:04:17.892Z,17.60
2019-05-30T22:06:46.856Z,17.50
2019-05-30T22:09:16.020Z,17.40
2019-05-30T22:11:45.602Z,17.30
2019-05-30T22:14:14.573Z,17.20
2019-05-30T22:16:43.964Z,17.30
2019-05-30T22:19:13.295Z,17.30
2019-05-30T22:21:42.370Z,17.20
2019-05-30T22:24:11.131Z,17.10
2019-05-30T22:26:39.968Z,17.00
2019-05-30T22:29:08.784Z,17.00
2019-05-30T22:31:37.687Z,17.00
2019-05-30T22:34:06.558Z,17.00
2019-05-30T22:36:35.515Z,17.00
2019-05-30T22:39:08.790Z,16.90
2019-05-30T22:41:36.820Z,16.90
2019-05-30T22:44:06.109Z,16.80
2019-05-30T22:46:35.785Z,16.70
2019-05-30T22:49:04.812Z,16.50
2019-05-30T22:51:34.143Z,16.40
2019-05-30T22:54:03.431Z,16.40
2019-05-30T22:56:32.391Z,16.30
2019-05-30T22:59:01.439Z,16.20
2019-05-30T23:01:30.260Z,16.10
2019-05-30T23:03:59.444Z,16.10
2019-05-30T23:06:28.245Z,16.10
2019-05-30T23:08:57.190Z,16.10
2019-05-30T23:11:26.453Z,16.00
2019-05-30T23:13:56.207Z,16.00
2019-05-30T23:16:25.697Z,16.10
2019-05-30T23:18:54.816Z,16.10
2019-05-30T23:21:24.420Z,16.20
2019-05-30T23:23:53.494Z,16.20
2019-05-30T23:26:22.291Z,16.10
2019-05-30T23:28:51.845Z,16.20
2019-05-30T23:31:21.091Z,16.10
2019-05-30T23:33:50.306Z,15.90
2019-05-30T23:36:19.289Z,15.90
2019-05-30T23:38:48.654Z,16.00
2019-05-30T23:41:17.496Z,16.10
2019-05-30T23:43:56.751Z,16.10
2019-05-30T23:46:16.873Z,16.00
2019-05-30T23:48:46.303Z,16.00
2019-05-30T23:51:15.405Z,16.10
2019-05-30T23:53:44.548Z,16.10
2019-05-30T23:56:13.728Z,16.00
2019-05-30T23:58:42.544Z,16.00
